x

North Nomad (46184) Wave Buoy

5:00pm - Fri 2nd Dec 2016 All times are AKST. -9 hours from GMT.

  • Sig Wave height 25.6ft
  • Peak Period 15s
  • Wind
    40mph, 56mph gusts
  • Sea Temp 47°f
  • Air Temp 39°f
  • Sea Pressure 1001.5mb
  • North Nomad
  • North Nomad

More Historic Weather Station data

Upgrade to MSW Pro to gain access to the past 30 days of data for over 8000 Wavebouys and Weather Stations around the globe.

Join Pro

Comparision Forecast

View Surf forecast
   
Fri 12/02 5:00pm 25.5ft 15s 40 56 mph 1001.5mb 47f 39f
4:00pm 26ft 15s 38 47 mph 1000.1mb 47f 43f
3:00pm 30.5ft 14s 38 47 mph 999.1mb 47f 44f
2:00pm 32ft 15s 36 47 mph 998.3mb 47f 44f
1:00pm 33ft 13s 40 51 mph 997.3mb 47f 44f
12:00pm 31.5ft 15s 40 49 mph 996.3mb 47f 43f
11:00am 35.5ft 14s 47 58 mph 994.6mb 47f 45f
10:00am 34ft 16s 43 54 mph 993.3mb 47f 45f
9:00am 35ft 16s 43 56 mph 991.5mb 47f 45f
8:00am 33.5ft 16s 43 56 mph 989.5mb 47f 46f
7:00am 34ft 16s 38 51 mph 987.6mb 47f 47f
6:00am 33ft 14s 43 58 mph 985.4mb 47f 47f
5:00am 36ft 15s 45 56 mph 983.5mb 47f 46f
4:00am 37.5ft 16s 45 58 mph 981.3mb 47f 46f
3:00am  -   -  47
mph
- - 47f
2:00am 30.5ft 14s 49 67 mph 976.4mb 48f 45f
1:00am  -   -  49
mph
974.4mb - 46f
12:00am 29ft 12s 47 60 mph 973.1mb 48f 46f
Thu 12/01 11:00pm 28ft 11s 47 58 mph 972.5mb 48f 46f
10:00pm 23.5ft 10s 49 63 mph 972.7mb 48f 47f
9:00pm 20.5ft 9s 43 54 mph 973.9mb 48f 46f
8:00pm 20.5ft 9s 43 58 mph 975.5mb 48f 47f
7:00pm 19ft 9s 43 51 mph 977.8mb 48f 47f
6:00pm 18.5ft 9s 36 45 mph 980mb 48f 49f
5:00pm 16.5ft 7s 43 58 mph 982.5mb 48f 46f
4:00pm 14.5ft 12s 43 56 mph 986.9mb 48f 44f
3:00pm 14ft 13s 38 47 mph 992.3mb 48f 43f
2:00pm 13.5ft 14s 31 40 mph 996.8mb 48f 43f
1:00pm 14ft 12s 29 36 mph 999.5mb 48f 46f
12:00pm 15.5ft 12s 22 27 mph 1002.6mb 48f 47f
11:00am 14.5ft 12s 18 22 mph 1003.8mb 48f 47f
10:00am 15ft 12s 16 20 mph 1005mb 48f 47f
8:00am 15.5ft 12s 22 29 mph 1005.6mb 48f 47f
7:00am 16.5ft 12s 25 29 mph 1004.8mb 48f 47f
6:00am 17ft 12s 25 31 mph 1003.8mb 48f 47f
4:00am 17ft 11s 27 34 mph 1001.7mb 48f 47f
3:00am 15.5ft 10s 31 40 mph 1000.5mb 48f 47f
2:00am 15.5ft 10s 34 45 mph 999.4mb 48f 47f
1:00am 15ft 11s 27 36 mph 997.8mb 48f 46f
12:00am 14ft 11s 25 31 mph 996.9mb 48f 47f
Wed 11/30 11:00pm 15.5ft 11s 27 34 mph 996.3mb 48f 45f
10:00pm 15.5ft 11s 29 45 mph 995.9mb 48f 47f
9:00pm 14ft 11s 34 43 mph 995.4mb 48f 47f
8:00pm 15ft 11s 27 36 mph 995.5mb 48f 47f
7:00pm 15ft 11s 27 34 mph 996.5mb 48f 47f
6:00pm 15ft 10s 27 31 mph 998.3mb 48f 47f
5:00pm 15.5ft 11s 25 31 mph 999.4mb 48f 47f
4:00pm 15ft 10s 27 34 mph 1000.8mb 48f 47f
3:00pm 15ft 11s 27 34 mph 1001.7mb 48f 47f
1:00pm 15ft 11s 29 36 mph 1004.7mb 48f 46f
12:00pm 14.5ft 11s 29 40 mph 1005.8mb 48f 45f
11:00am 13.5ft 11s 27 36 mph 1007.4mb 48f 45f
10:00am 13ft 12s 25 31 mph 1008.6mb 48f 46f
9:00am 13ft 11s 22 29 mph 1009.5mb 48f 46f
8:00am 14.5ft 11s 18 22 mph 1009.5mb 48f 46f
7:00am 14ft 11s 16 20 mph 1010.2mb 48f 44f
6:00am  -   -  18
mph
1010mb 48f 45f
5:00am 17ft 11s 13 18 mph 1010mb 48f 45f
4:00am 16.5ft 11s 16 20 mph 1009.7mb 48f 45f
3:00am 19.5ft 11s 20 27 mph 1009mb 48f 45f
2:00am  -   -  20
mph
1008.2mb - 45f
1:00am  -   -  22
mph
1007.4mb 48f 44f
12:00am 23.5ft 12s 25 29 mph 1006.5mb 48f 44f
Tue 11/29 11:00pm 20.5ft 12s 29 43 mph 1005mb 48f 42f
10:00pm 19ft 13s 40 51 mph 1003.7mb 48f 40f
9:00pm 21ft 14s 27 34 mph 1002.7mb 48f 44f
8:00pm  -   -  29
mph
1001.4mb - 44f
7:00pm 23.5ft 13s 29 38 mph 999.9mb 48f 45f
6:00pm 24.5ft 14s 27 36 mph 998.8mb 48f 44f
5:00pm 26ft 15s 31 45 mph 996.6mb 48f 46f
4:00pm 25.5ft 14s 31 40 mph 994.6mb 48f 46f
3:00pm 27.5ft 15s 36 47 mph 991.9mb 48f 46f
2:00pm 25ft 14s 38 49 mph 989.2mb 48f 46f
1:00pm 26.5ft 14s 36 45 mph 987.1mb 48f 45f
12:00pm 28ft 14s 40 54 mph 984.6mb 48f 46f
11:00am 32ft 14s 38 49 mph 982.7mb 48f 46f
10:00am 28ft 13s 38 47 mph 981.4mb 48f 46f
9:00am 26ft 12s 40 51 mph 980.3mb 48f 47f
8:00am 22.5ft 12s 40 58 mph 980mb 48f 47f
7:00am 20.5ft 12s 34 45 mph 980.5mb 48f 47f
6:00am 21.5ft 11s 38 47 mph 980.7mb 48f 47f
5:00am 19.5ft 11s 34 45 mph 981.2mb 48f 47f
4:00am 18.5ft 11s 34 43 mph 981.5mb 48f 47f